Weather History for Carroll, IA

Change the Weather History Date:

Sunday, May 5, 2013

  Actual Average Record
Temperature  
Mean Temperature 47 °F -  
Max Temperature 53 °F 70 °F 90 °F (1966)
Min Temperature 41 °F 45 °F 22 °F (1954)
Degree Days  
Heating Degree Days 18    
Moisture  
Dew Point 46 °F    
Average Humidity 99    
Maximum Humidity 100    
Minimum Humidity 94    
Precipitation  
Precipitation 0.09 in - - ()
Sea Level Pressure  
Sea Level Pressure 30.11 in    
Wind  
Wind Speed 11 mph (North)    
Max Wind Speed 16 mph    
Max Gust Speed 17 mph    
Visibility 6 miles    
Events Rain    
Averages and records for this station are not official NWS values.
T = Trace of Precipitation, MM = Missing Value Source: NWS Daily Summary

Daily Weather History Graph

Daily Weather History Graph

Search for Another Location

Airport:

Trip Planner

Search our weather history database for the weather conditions in past years. The results will help you decide how hot, cold, wet, or windy it might be!

Date:

Astronomy

May. 05, 2013 Rise Set
Actual Time 6:09 AM CDT 8:22 PM CDT
Civil Twilight 5:38 AM CDT 8:53 PM CDT
Nautical Twilight 5:00 AM CDT 9:32 PM CDT
Astronomical Twilight 4:18 AM CDT 10:14 PM CDT
Moon 3:44 AM CDT (5/5) 4:19 PM CDT (5/5)
Length of Visible Light 15h 15m
Length of Day
14h 13m
Waning Crescent, 18% of the Moon is Illuminated
May 5
Waning Crescent
May 9
New
May 17
First Quarter
May 24
Full
May 31
Last Quarter

Hourly Weather History & Observations

Time (CDT) Temp. Windchill Dew Point Humidity Pressure Visibility Wind Dir Wind Speed Gust Speed Precip Events Conditions
12:15 AM 41.0 °F 35.2 °F 41.0 °F 100% 30.12 in 3.0 mi North 9.2 mph - N/A Rain Light Rain
12:35 AM 41.0 °F 34.3 °F 41.0 °F 100% 30.11 in 2.0 mi NNW 11.5 mph - N/A Rain Light Rain
12:55 AM 41.0 °F 37.1 °F 41.0 °F 100% 30.13 in 2.0 mi North 5.8 mph 11.5 mph 0.03 in Rain Rain
1:15 AM 41.0 °F 35.2 °F 41.0 °F 100% 30.12 in 1.5 mi North 9.2 mph - N/A Rain Rain
1:35 AM 41.0 °F 33.5 °F 41.0 °F 100% 30.11 in 1.0 mi North 13.8 mph - N/A Rain Light Rain
1:55 AM 41.0 °F 34.7 °F 41.0 °F 100% 30.10 in 3.0 mi NNW 10.4 mph 17.3 mph 0.06 in   Light Drizzle
2:15 AM 41.0 °F 33.9 °F 41.0 °F 100% 30.09 in 2.0 mi NNW 12.7 mph - N/A   Overcast
2:35 AM 41.0 °F 33.5 °F 41.0 °F 100% 30.09 in 1.5 mi North 13.8 mph - N/A   Overcast
2:55 AM 41.0 °F 34.3 °F 41.0 °F 100% 30.09 in 1.2 mi North 11.5 mph - N/A   Overcast
3:15 AM 41.0 °F 33.9 °F 41.0 °F 100% 30.09 in 1.0 mi NNW 12.7 mph - N/A   Overcast
3:35 AM 41.0 °F 33.9 °F 41.0 °F 100% 30.09 in 1.2 mi NNW 12.7 mph - N/A   Overcast
3:55 AM 41.0 °F 34.7 °F 41.0 °F 100% 30.09 in 1.2 mi North 10.4 mph 17.3 mph N/A   Overcast
4:15 AM 41.0 °F 34.3 °F 41.0 °F 100% 30.09 in 1.8 mi North 11.5 mph - N/A   Overcast
4:35 AM 41.0 °F 34.3 °F 41.0 °F 100% 30.10 in 2.0 mi North 11.5 mph - N/A   Overcast
4:55 AM 41.0 °F 34.7 °F 41.0 °F 100% 30.10 in 3.0 mi North 10.4 mph - N/A   Overcast
5:15 AM 41.0 °F 35.2 °F 41.0 °F 100% 30.11 in 3.0 mi North 9.2 mph - N/A   Overcast
5:35 AM 41.0 °F 34.7 °F 41.0 °F 100% 30.11 in 3.0 mi North 10.4 mph - N/A   Overcast
5:55 AM 41.0 °F 34.3 °F 41.0 °F 100% 30.11 in 3.0 mi North 11.5 mph - N/A   Overcast
6:15 AM 41.0 °F 35.2 °F 41.0 °F 100% 30.11 in 3.0 mi NNW 9.2 mph - N/A   Overcast
6:35 AM 41.0 °F 34.3 °F 41.0 °F 100% 30.11 in 2.5 mi North 11.5 mph - N/A   Overcast
6:55 AM 41.0 °F 35.8 °F 41.0 °F 100% 30.12 in 2.5 mi NNW 8.1 mph - N/A   Overcast
7:15 AM 41.0 °F 35.2 °F 41.0 °F 100% 30.12 in 2.0 mi NNW 9.2 mph - N/A   Overcast
7:35 AM 41.0 °F 34.7 °F 41.0 °F 100% 30.13 in 1.0 mi NNW 10.4 mph - N/A   Overcast
7:55 AM 42.8 °F 37.0 °F 42.8 °F 100% 30.13 in 0.8 mi North 10.4 mph - N/A   Overcast
8:15 AM 42.8 °F 37.0 °F 42.8 °F 100% 30.14 in 1.2 mi North 10.4 mph - N/A   Overcast
8:35 AM 42.8 °F 36.6 °F 42.8 °F 100% 30.14 in 2.0 mi North 11.5 mph - N/A   Overcast
8:55 AM 42.8 °F 37.0 °F 42.8 °F 100% 30.14 in 2.5 mi North 10.4 mph - N/A   Overcast
9:15 AM 42.8 °F 37.0 °F 42.8 °F 100% 30.14 in 3.0 mi North 10.4 mph - N/A   Overcast
9:35 AM 44.6 °F 38.8 °F 44.6 °F 100% 30.14 in 3.0 mi North 11.5 mph - N/A   Overcast
9:55 AM 44.6 °F 38.8 °F 44.6 °F 100% 30.14 in 3.0 mi North 11.5 mph - N/A   Overcast
10:15 AM 44.6 °F 38.8 °F 44.6 °F 100% 30.14 in 5.0 mi North 11.5 mph - N/A   Overcast
10:35 AM 44.6 °F 39.2 °F 44.6 °F 100% 30.14 in - North 10.4 mph - N/A   Overcast
10:55 AM 46.4 °F 41.1 °F 46.4 °F 100% 30.14 in 8.0 mi North 11.5 mph - N/A   Overcast
11:15 AM 46.4 °F 41.1 °F 46.4 °F 100% 30.15 in 9.0 mi North 11.5 mph - N/A   Overcast
11:35 AM 46.4 °F 41.9 °F 46.4 °F 100% 30.15 in 8.0 mi North 9.2 mph - N/A   Overcast
11:55 AM 46.4 °F 41.5 °F 46.4 °F 100% 30.15 in 8.0 mi North 10.4 mph - N/A   Overcast
12:15 PM 46.4 °F 41.1 °F 46.4 °F 100% 30.15 in 8.0 mi North 11.5 mph - N/A   Overcast
12:35 PM 46.4 °F 41.5 °F 46.4 °F 100% 30.15 in 8.0 mi North 10.4 mph - N/A   Overcast
1:15 PM 48.2 °F - 48.2 °F 100% 30.13 in 9.0 mi North 11.5 mph - N/A   Overcast
1:35 PM 48.2 °F - 48.2 °F 100% 30.13 in 9.0 mi NNW 12.7 mph - N/A   Overcast
1:55 PM 50.0 °F - 48.2 °F 94% 30.12 in 9.0 mi NNW 13.8 mph - N/A   Overcast
2:15 PM 50.0 °F - 50.0 °F 100% 30.12 in 8.0 mi North 13.8 mph - N/A   Overcast
2:35 PM 50.0 °F - 50.0 °F 100% 30.11 in 8.0 mi NNW 16.1 mph - N/A   Overcast
2:55 PM 50.0 °F - 50.0 °F 100% 30.12 in 9.0 mi North 12.7 mph - N/A   Overcast
3:15 PM 50.0 °F - 50.0 °F 100% 30.11 in 10.0 mi NNW 12.7 mph - N/A   Overcast
3:35 PM 51.8 °F - 50.0 °F 94% 30.11 in 10.0 mi NNW 12.7 mph - N/A   Overcast
3:55 PM 51.8 °F - 50.0 °F 94% 30.11 in 10.0 mi NNW 12.7 mph - N/A   Overcast
4:15 PM 51.8 °F - 50.0 °F 94% 30.10 in 10.0 mi North 12.7 mph - N/A   Overcast
4:35 PM 51.8 °F - 51.8 °F 100% 30.10 in 10.0 mi North 12.7 mph - N/A   Overcast
4:55 PM 51.8 °F - 51.8 °F 100% 30.10 in 10.0 mi North 12.7 mph - N/A   Overcast
5:15 PM 53.6 °F - 51.8 °F 94% 30.09 in 10.0 mi North 10.4 mph - N/A   Overcast
5:35 PM 53.6 °F - 51.8 °F 94% 30.09 in 10.0 mi North 11.5 mph - N/A   Overcast
5:55 PM 53.6 °F - 51.8 °F 94% 30.09 in 10.0 mi North 12.7 mph - N/A   Overcast
6:15 PM 53.6 °F - 51.8 °F 94% 30.09 in 10.0 mi North 10.4 mph - N/A   Overcast
6:35 PM 53.6 °F - 51.8 °F 94% 30.09 in 10.0 mi North 11.5 mph - N/A   Overcast
6:55 PM 51.8 °F - 51.8 °F 100% 30.09 in 10.0 mi North 11.5 mph - N/A   Overcast
7:15 PM 51.8 °F - 51.8 °F 100% 30.09 in 10.0 mi North 12.7 mph - N/A   Overcast
7:35 PM 51.8 °F - 51.8 °F 100% 30.10 in 10.0 mi North 11.5 mph - N/A   Overcast
7:55 PM 51.8 °F - 51.8 °F 100% 30.10 in 10.0 mi North 9.2 mph - N/A   Overcast
8:15 PM 51.8 °F - 51.8 °F 100% 30.10 in 10.0 mi North 8.1 mph - N/A   Overcast
8:35 PM 51.8 °F - 51.8 °F 100% 30.10 in 9.0 mi North 8.1 mph - N/A   Overcast
8:55 PM 51.8 °F - 51.8 °F 100% 30.10 in 10.0 mi North 5.8 mph - N/A   Overcast
9:35 PM 51.8 °F - 51.8 °F 100% 30.11 in 10.0 mi NNE 9.2 mph - N/A   Overcast
9:55 PM 51.8 °F - 51.8 °F 100% 30.11 in 10.0 mi NNE 5.8 mph - N/A   Overcast
10:15 PM 50.0 °F - 50.0 °F 100% 30.11 in 9.0 mi NNE 5.8 mph - N/A   Overcast
10:35 PM 50.0 °F - 50.0 °F 100% 30.11 in 7.0 mi NNE 4.6 mph - N/A   Overcast
10:55 PM 50.0 °F - 50.0 °F 100% 30.11 in 7.0 mi North 4.6 mph - N/A   Overcast
11:15 PM 50.0 °F - 50.0 °F 100% 30.11 in 9.0 mi North 8.1 mph - N/A   Overcast
11:35 PM 50.0 °F - 50.0 °F 100% 30.11 in 9.0 mi North 8.1 mph - N/A   Overcast
11:55 PM 50.0 °F - 50.0 °F 100% 30.11 in 7.0 mi NNW 6.9 mph - N/A   Overcast